createdAt,value
2022-10-19T00:02:22.780Z,101650.78
2022-10-19T00:04:49.418Z,101648.41
2022-10-19T00:07:16.098Z,101651.66
2022-10-19T00:09:44.510Z,101652.66
2022-10-19T00:12:12.948Z,101660.28
2022-10-19T00:14:39.697Z,101664.03
2022-10-19T00:17:06.236Z,101668.09
2022-10-19T00:19:32.837Z,101669.78
2022-10-19T00:21:59.391Z,101668.41
2022-10-19T00:24:26.002Z,101679.28
2022-10-19T00:26:52.699Z,101671.69
2022-10-19T00:29:19.330Z,101675.06
2022-10-19T00:31:46.022Z,101671.69
2022-10-19T00:34:12.677Z,101677.91
2022-10-19T00:36:40.781Z,101683.09
2022-10-19T00:39:11.339Z,101691.09
2022-10-19T00:41:38.780Z,101693.81
2022-10-19T00:44:27.133Z,101704.84
2022-10-19T00:46:53.974Z,101705.78
2022-10-19T00:49:24.458Z,101707.75
2022-10-19T00:51:55.582Z,101718.69
2022-10-19T00:54:23.869Z,101719.41
2022-10-19T00:56:53.329Z,101722.28
2022-10-19T00:59:22.220Z,101723.22
2022-10-19T01:01:49.392Z,101731.16
2022-10-19T01:04:16.361Z,101732.81
2022-10-19T01:06:43.071Z,101739.75
2022-10-19T01:09:09.737Z,101741.66
2022-10-19T01:11:48.426Z,101753.63
2022-10-19T01:14:30.170Z,101752.59
2022-10-19T01:17:03.978Z,101749.78
2022-10-19T01:19:52.256Z,101754.16
2022-10-19T01:23:00.437Z,101763.97
2022-10-19T01:25:36.003Z,101765.06
2022-10-19T01:28:31.832Z,101753.75
2022-10-19T01:31:23.156Z,101762.34
2022-10-19T01:34:13.051Z,101760.56
2022-10-19T01:37:00.857Z,101758.44
2022-10-19T01:39:44.236Z,101758.75
2022-10-19T01:42:26.369Z,101764.94
2022-10-19T01:45:05.088Z,101763.38
2022-10-19T01:47:38.617Z,101760.25
2022-10-19T01:50:27.673Z,101766.75
2022-10-19T01:52:56.573Z,101766.19
2022-10-19T01:55:25.930Z,101770.44
2022-10-19T01:57:58.527Z,101775.81
2022-10-19T02:00:26.725Z,101776.63
2022-10-19T02:02:54.858Z,101775.72
2022-10-19T02:05:27.223Z,101783.28
2022-10-19T02:07:59.681Z,101781.47
2022-10-19T02:10:28.385Z,101786.72
2022-10-19T02:12:56.118Z,101785.47
2022-10-19T02:15:27.066Z,101791.72
2022-10-19T02:17:57.375Z,101794.31
2022-10-19T02:20:24.404Z,101794.16
2022-10-19T02:22:51.086Z,101782.84
2022-10-19T02:25:18.004Z,101786.72
2022-10-19T02:27:44.993Z,101783.94
2022-10-19T02:30:14.484Z,101799.06
2022-10-19T02:32:42.304Z,101794.19
2022-10-19T02:35:10.390Z,101804.72
2022-10-19T02:37:37.166Z,101809.13
2022-10-19T02:40:04.972Z,101809.13
2022-10-19T02:42:40.622Z,101811.06
2022-10-19T02:45:29.014Z,101817.34
2022-10-19T02:48:01.067Z,101822.09
2022-10-19T02:50:27.930Z,101829.28
2022-10-19T02:52:54.473Z,101830.75
2022-10-19T02:55:21.107Z,101833.00
2022-10-19T02:57:47.648Z,101830.41
2022-10-19T03:00:14.695Z,101835.72
2022-10-19T03:02:42.705Z,101840.38
2022-10-19T03:05:09.758Z,101845.13
2022-10-19T03:07:36.868Z,101838.28
2022-10-19T03:10:03.817Z,101837.22
2022-10-19T03:12:30.392Z,101838.44
2022-10-19T03:14:56.973Z,101845.44
2022-10-19T03:17:23.671Z,101846.63
2022-10-19T03:19:50.299Z,101852.03
2022-10-19T03:22:16.896Z,101854.84
2022-10-19T03:24:43.566Z,101858.44
2022-10-19T03:27:10.181Z,101858.72
2022-10-19T03:29:36.824Z,101862.38
2022-10-19T03:32:03.725Z,101867.72
2022-10-19T03:34:30.383Z,101871.47
2022-10-19T03:36:59.138Z,101876.03
2022-10-19T03:39:26.123Z,101890.00
2022-10-19T03:41:52.867Z,101883.28
2022-10-19T03:44:19.434Z,101877.19
2022-10-19T03:46:46.006Z,101872.84
2022-10-19T03:49:12.596Z,101874.88
2022-10-19T03:51:39.189Z,101871.75
2022-10-19T03:54:08.250Z,101878.91
2022-10-19T03:56:36.093Z,101886.88
2022-10-19T03:59:05.146Z,101893.13
2022-10-19T04:01:40.301Z,101900.03
2022-10-19T04:04:11.435Z,101902.91
2022-10-19T04:06:41.426Z,101908.25
2022-10-19T04:09:11.110Z,101907.50
2022-10-19T04:11:38.245Z,101899.03
2022-10-19T04:14:05.455Z,101905.25
2022-10-19T04:16:32.648Z,101913.00
2022-10-19T04:18:59.546Z,101911.56
2022-10-19T04:21:31.813Z,101916.88
2022-10-19T04:24:03.112Z,101924.75
2022-10-19T04:26:30.401Z,101918.88
2022-10-19T04:28:58.636Z,101922.53
2022-10-19T04:31:26.007Z,101931.34
2022-10-19T04:33:52.719Z,101933.13
2022-10-19T04:36:19.672Z,101930.75
2022-10-19T04:38:46.574Z,101942.97
2022-10-19T04:41:17.465Z,101939.72
2022-10-19T04:43:47.348Z,101939.03
2022-10-19T04:46:17.153Z,101938.03
2022-10-19T04:48:44.393Z,101933.88
2022-10-19T04:51:11.684Z,101929.66
2022-10-19T04:53:39.735Z,101928.06
2022-10-19T04:56:09.278Z,101934.31
2022-10-19T04:58:35.955Z,101936.06
2022-10-19T05:01:15.147Z,101939.63
2022-10-19T05:03:41.839Z,101945.69
2022-10-19T05:06:09.550Z,101955.34
2022-10-19T05:08:36.976Z,101952.84
2022-10-19T05:11:05.898Z,101959.84
2022-10-19T05:13:33.287Z,101967.63
2022-10-19T05:16:01.657Z,101965.09
2022-10-19T05:18:28.883Z,101965.97
2022-10-19T05:21:21.968Z,101967.69
2022-10-19T05:23:52.371Z,101971.09
2022-10-19T05:26:21.118Z,101970.28
2022-10-19T05:28:56.665Z,101976.53
2022-10-19T05:31:29.252Z,101979.00
2022-10-19T05:33:56.395Z,101984.78
2022-10-19T05:36:28.764Z,101992.59
2022-10-19T05:38:57.522Z,101987.25
2022-10-19T05:41:25.530Z,101994.06
2022-10-19T05:43:59.527Z,101993.25
2022-10-19T05:46:28.396Z,101995.06
2022-10-19T05:48:56.791Z,102006.38
2022-10-19T05:51:24.825Z,102013.25
2022-10-19T05:53:52.896Z,102010.81
2022-10-19T05:56:25.805Z,102016.06
2022-10-19T05:58:52.525Z,102016.03
2022-10-19T06:01:20.094Z,102022.03
2022-10-19T06:03:50.891Z,102024.69
2022-10-19T06:06:17.910Z,102027.38
2022-10-19T06:08:45.133Z,102026.38
2022-10-19T06:11:14.488Z,102032.31
2022-10-19T06:13:42.852Z,102036.72
2022-10-19T06:16:10.748Z,102036.81
2022-10-19T06:18:38.259Z,102038.44
2022-10-19T06:21:07.178Z,102038.31
2022-10-19T06:23:35.374Z,102042.66
2022-10-19T06:26:04.309Z,102042.44
2022-10-19T06:28:30.970Z,102051.06
2022-10-19T06:30:58.692Z,102058.75
2022-10-19T06:33:26.064Z,102062.38
2022-10-19T06:35:52.848Z,102073.78
2022-10-19T06:38:19.649Z,102075.56
2022-10-19T06:40:46.404Z,102081.84
2022-10-19T06:43:13.008Z,102081.59
2022-10-19T06:45:39.746Z,102083.06
2022-10-19T06:48:07.764Z,102090.59
2022-10-19T06:50:35.317Z,102097.97
2022-10-19T06:53:05.090Z,102108.59
2022-10-19T06:55:31.671Z,102100.19
2022-10-19T06:58:01.646Z,102117.47
2022-10-19T07:00:29.480Z,102109.16
2022-10-19T07:02:58.006Z,102119.50
2022-10-19T07:05:24.694Z,102126.44
2022-10-19T07:07:51.329Z,102126.81
2022-10-19T07:10:18.070Z,102129.09
2022-10-19T07:12:44.661Z,102116.56
2022-10-19T07:15:11.196Z,102125.09
2022-10-19T07:17:37.829Z,102127.78
2022-10-19T07:20:04.818Z,102127.59
2022-10-19T07:22:31.426Z,102135.69
2022-10-19T07:24:58.368Z,102140.34
2022-10-19T07:27:25.171Z,102143.06
2022-10-19T07:29:51.727Z,102143.06
2022-10-19T07:32:18.238Z,102144.66
2022-10-19T07:34:44.850Z,102152.38
2022-10-19T07:37:11.409Z,102146.31
2022-10-19T07:39:38.052Z,102155.69
2022-10-19T07:42:04.960Z,102156.28
2022-10-19T07:44:31.627Z,102154.22
2022-10-19T07:46:58.527Z,102154.19
2022-10-19T07:49:25.243Z,102152.47
2022-10-19T07:51:54.136Z,102166.69
2022-10-19T07:54:21.475Z,102171.38
2022-10-19T07:56:48.127Z,102163.06
2022-10-19T07:59:16.912Z,102164.03
2022-10-19T08:01:44.933Z,102167.25
2022-10-19T08:04:59.085Z,102157.75
2022-10-19T08:06:58.142Z,102156.19
2022-10-19T08:12:15.199Z,102169.97
2022-10-19T08:14:42.295Z,102173.34
2022-10-19T08:17:11.647Z,102164.53
2022-10-19T08:19:43.206Z,102163.53
2022-10-19T08:22:10.525Z,102169.16
2022-10-19T08:24:37.064Z,102165.88
2022-10-19T08:27:03.929Z,102160.41
2022-10-19T08:29:31.621Z,102163.06
2022-10-19T08:31:59.034Z,102162.13
2022-10-19T08:34:25.736Z,102165.81
2022-10-19T08:36:52.354Z,102174.56
2022-10-19T08:39:18.978Z,102166.19
2022-10-19T08:42:06.774Z,102175.13
2022-10-19T08:45:14.150Z,102177.25
2022-10-19T08:48:18.188Z,102190.06
2022-10-19T08:50:46.326Z,102189.25
2022-10-19T08:53:22.449Z,102185.59
2022-10-19T08:55:53.378Z,102196.44
2022-10-19T08:58:31.040Z,102197.19
2022-10-19T09:01:11.069Z,102200.34
2022-10-19T09:03:56.743Z,102199.16
2022-10-19T09:06:31.990Z,102200.59
2022-10-19T09:08:59.566Z,102198.69
2022-10-19T09:11:31.584Z,102195.75
2022-10-19T09:14:18.440Z,102199.84
2022-10-19T09:16:46.248Z,102198.09
2022-10-19T09:19:22.005Z,102199.53
2022-10-19T09:21:54.022Z,102204.69
2022-10-19T09:24:32.758Z,102221.78
2022-10-19T09:27:01.034Z,102212.47
2022-10-19T09:29:39.047Z,102215.06
2022-10-19T09:32:14.390Z,102214.59
2022-10-19T09:34:46.311Z,102218.00
2022-10-19T09:37:21.231Z,102211.19
2022-10-19T09:40:16.860Z,102210.72
2022-10-19T09:42:43.429Z,102215.84
2022-10-19T09:45:34.245Z,102213.31
2022-10-19T09:48:07.176Z,102218.06
2022-10-19T09:50:43.584Z,102221.13
2022-10-19T09:53:19.565Z,102228.28
2022-10-19T09:55:53.501Z,102208.38
2022-10-19T09:58:20.940Z,102221.59
2022-10-19T10:00:55.894Z,102220.88
2022-10-19T10:03:32.778Z,102226.06
2022-10-19T10:06:04.653Z,102225.41
2022-10-19T10:08:35.634Z,102214.53
2022-10-19T10:11:07.127Z,102227.88
2022-10-19T10:13:40.473Z,102216.34
2022-10-19T10:16:10.398Z,102229.25
2022-10-19T10:18:50.917Z,102234.53
2022-10-19T10:21:26.250Z,102228.75
2022-10-19T10:24:20.361Z,102233.53
2022-10-19T10:26:51.801Z,102229.97
2022-10-19T10:29:24.273Z,102234.09
2022-10-19T10:32:15.510Z,102233.72
2022-10-19T10:34:53.989Z,102229.25
2022-10-19T10:37:29.931Z,102229.63
2022-10-19T10:40:01.757Z,102237.25
2022-10-19T10:42:43.143Z,102240.31
2022-10-19T10:45:23.912Z,102238.03
2022-10-19T10:47:52.005Z,102236.66
2022-10-19T10:50:22.889Z,102236.56
2022-10-19T10:52:58.707Z,102247.28
2022-10-19T10:55:26.602Z,102242.56
2022-10-19T10:58:05.027Z,102248.66
2022-10-19T11:00:34.473Z,102240.91
2022-10-19T11:03:19.710Z,102259.59
2022-10-19T11:05:49.780Z,102255.00
2022-10-19T11:08:25.354Z,102248.63
2022-10-19T11:10:57.609Z,102245.78
2022-10-19T11:13:30.948Z,102243.34
2022-10-19T11:16:22.835Z,102246.03
2022-10-19T11:18:56.444Z,102243.41
2022-10-19T11:21:47.780Z,102246.38
2022-10-19T11:24:35.396Z,102240.06
2022-10-19T11:27:20.789Z,102225.53
2022-10-19T11:30:29.174Z,102233.34
2022-10-19T11:33:14.461Z,102226.28
2022-10-19T11:36:33.288Z,102232.22
2022-10-19T11:39:02.873Z,102228.06
2022-10-19T11:41:39.217Z,102224.03
2022-10-19T11:44:38.269Z,102220.19
2022-10-19T11:47:43.799Z,102223.72
2022-10-19T11:50:33.396Z,102228.69
2022-10-19T11:53:15.945Z,102212.31
2022-10-19T11:55:54.574Z,102217.22
2022-10-19T11:58:49.171Z,102210.31
2022-10-19T12:01:46.388Z,102215.63
2022-10-19T12:04:12.986Z,102216.41
2022-10-19T12:06:54.835Z,102208.91
2022-10-19T12:09:48.862Z,102208.81
2022-10-19T12:12:27.727Z,102206.38
2022-10-19T12:15:03.535Z,102216.88
2022-10-19T12:17:36.895Z,102207.84
2022-10-19T12:20:19.024Z,102213.19
2022-10-19T12:22:49.089Z,102199.94
2022-10-19T12:25:17.558Z,102204.84
2022-10-19T12:27:47.622Z,102209.78
2022-10-19T12:30:20.674Z,102207.72
2022-10-19T12:32:54.254Z,102216.25
2022-10-19T12:35:21.271Z,102213.13
2022-10-19T12:38:19.456Z,102209.59
2022-10-19T12:41:12.445Z,102210.69
2022-10-19T12:43:53.973Z,102220.09
2022-10-19T12:46:42.945Z,102225.38
2022-10-19T12:49:43.991Z,102221.00
2022-10-19T12:52:12.086Z,102221.56
2022-10-19T12:54:40.514Z,102224.66
2022-10-19T12:57:25.948Z,102215.78
2022-10-19T13:00:01.707Z,102218.69
2022-10-19T13:02:35.704Z,102215.66
2022-10-19T13:05:03.246Z,102219.47
2022-10-19T13:07:33.210Z,102218.56
2022-10-19T13:10:04.117Z,102219.47
2022-10-19T13:12:43.637Z,102217.00
2022-10-19T13:15:35.810Z,102216.84
2022-10-19T13:18:04.189Z,102227.06
2022-10-19T13:20:30.716Z,102217.09
2022-10-19T13:23:00.226Z,102217.91
2022-10-19T13:25:40.221Z,102214.72
2022-10-19T13:28:06.813Z,102217.25
2022-10-19T13:31:03.266Z,102203.53
2022-10-19T13:33:44.495Z,102209.75
2022-10-19T13:36:12.039Z,102206.56
2022-10-19T13:38:43.336Z,102213.31
2022-10-19T13:41:15.770Z,102212.19
2022-10-19T13:44:18.273Z,102211.97
2022-10-19T13:47:00.035Z,102211.31
2022-10-19T13:50:15.182Z,102200.69
2022-10-19T13:52:41.702Z,102199.84
2022-10-19T13:55:37.478Z,102194.66
2022-10-19T13:58:34.624Z,102195.41
2022-10-19T14:01:38.319Z,102193.13
2022-10-19T14:04:20.420Z,102206.00
2022-10-19T14:07:04.554Z,102194.56
2022-10-19T14:09:52.914Z,102190.63
2022-10-19T14:12:27.172Z,102197.81
2022-10-19T14:14:53.980Z,102194.81
2022-10-19T14:17:28.045Z,102199.63
2022-10-19T14:19:57.821Z,102198.28
2022-10-19T14:22:36.262Z,102190.81
2022-10-19T14:25:05.449Z,102195.84
2022-10-19T14:27:33.399Z,102182.72
2022-10-19T14:30:00.582Z,102181.97
2022-10-19T14:32:29.477Z,102185.34
2022-10-19T14:37:31.495Z,102166.44
2022-10-19T14:40:07.617Z,102170.13
2022-10-19T14:42:52.681Z,102176.56
2022-10-19T14:45:26.233Z,102173.47
2022-10-19T14:48:04.742Z,102180.88
2022-10-19T14:50:40.292Z,102179.53
2022-10-19T14:53:47.141Z,102175.84
2022-10-19T14:56:38.433Z,102175.63
2022-10-19T14:59:19.225Z,102176.53
2022-10-19T15:01:55.537Z,102173.03
2022-10-19T15:04:28.494Z,102167.25
2022-10-19T15:06:57.891Z,102167.22
2022-10-19T15:09:37.486Z,102174.09
2022-10-19T15:12:20.342Z,102162.75
2022-10-19T15:14:49.014Z,102164.31
2022-10-19T15:17:30.208Z,102164.75
2022-10-19T15:20:04.779Z,102165.25
2022-10-19T15:22:32.066Z,102153.44
2022-10-19T15:25:08.348Z,102165.84
2022-10-19T15:27:37.318Z,102164.34
2022-10-19T15:30:27.232Z,102168.09
2022-10-19T15:33:02.997Z,102166.13
2022-10-19T15:35:32.793Z,102170.00
2022-10-19T15:38:02.867Z,102156.66
2022-10-19T15:40:40.883Z,102162.81
2022-10-19T15:43:35.046Z,102160.66
2022-10-19T15:46:13.427Z,102147.88
2022-10-19T15:48:51.204Z,102144.66
2022-10-19T15:51:23.426Z,102147.72
2022-10-19T15:53:55.686Z,102145.22
2022-10-19T15:56:24.397Z,102141.50
2022-10-19T15:58:52.982Z,102144.69
2022-10-19T16:01:22.576Z,102146.44
2022-10-19T16:03:49.675Z,102145.03
2022-10-19T16:06:17.630Z,102142.97
2022-10-19T16:08:47.591Z,102151.72
2022-10-19T16:11:16.067Z,102152.88
2022-10-19T16:13:45.996Z,102148.84
2022-10-19T16:16:23.308Z,102159.41
2022-10-19T16:18:50.609Z,102158.00
2022-10-19T16:21:19.177Z,102159.06
2022-10-19T16:23:46.230Z,102170.47
2022-10-19T16:26:16.998Z,102171.47
2022-10-19T16:28:44.534Z,102176.19
2022-10-19T16:31:12.259Z,102176.44
2022-10-19T16:33:44.032Z,102151.66
2022-10-19T16:36:11.505Z,102161.19
2022-10-19T16:38:38.670Z,102163.13
2022-10-19T16:41:10.795Z,102156.28
2022-10-19T16:43:46.335Z,102158.81
2022-10-19T16:46:15.840Z,102156.88
2022-10-19T16:48:42.589Z,102160.97
2022-10-19T16:51:31.649Z,102153.16
2022-10-19T16:53:58.978Z,102158.28
2022-10-19T16:56:29.670Z,102161.16
2022-10-19T16:58:59.994Z,102167.56
2022-10-19T17:01:27.410Z,102163.34
2022-10-19T17:03:54.938Z,102157.38
2022-10-19T17:06:22.335Z,102159.06
2022-10-19T17:11:38.755Z,102160.28
2022-10-19T17:14:08.662Z,102156.09
2022-10-19T17:16:36.786Z,102156.69
2022-10-19T17:19:11.129Z,102161.81
2022-10-19T17:21:39.010Z,102150.81
2022-10-19T17:24:08.212Z,102151.84
2022-10-19T17:26:38.645Z,102157.91
2022-10-19T17:29:16.075Z,102161.41
2022-10-19T17:31:43.532Z,102163.19
2022-10-19T17:34:10.587Z,102157.13
2022-10-19T17:39:10.886Z,102176.88
2022-10-19T17:41:37.988Z,102164.00
2022-10-19T17:44:05.385Z,102168.38
2022-10-19T17:46:35.696Z,102174.50
2022-10-19T17:49:03.021Z,102171.00
2022-10-19T17:51:31.271Z,102173.47
2022-10-19T17:54:00.330Z,102176.16
2022-10-19T17:56:27.957Z,102172.09
2022-10-19T17:58:55.864Z,102178.94
2022-10-19T18:01:22.927Z,102171.13
2022-10-19T18:03:50.374Z,102181.53
2022-10-19T18:06:25.791Z,102180.00
2022-10-19T18:08:54.404Z,102173.13
2022-10-19T18:11:25.109Z,102171.53
2022-10-19T18:13:54.782Z,102166.38
2022-10-19T18:16:33.875Z,102171.63
2022-10-19T18:19:02.228Z,102175.97
2022-10-19T18:21:34.322Z,102173.38
2022-10-19T18:24:02.424Z,102175.06
2022-10-19T18:26:32.411Z,102178.56
2022-10-19T18:29:00.926Z,102175.97
2022-10-19T18:31:30.598Z,102183.75
2022-10-19T18:33:59.848Z,102185.53
2022-10-19T18:36:26.781Z,102185.56
2022-10-19T18:38:55.429Z,102187.28
2022-10-19T18:41:22.746Z,102197.63
2022-10-19T18:44:05.050Z,102195.19
2022-10-19T18:46:34.379Z,102193.53
2022-10-19T18:49:01.791Z,102185.81
2022-10-19T18:51:29.101Z,102192.81
2022-10-19T18:53:55.668Z,102200.63
2022-10-19T18:56:23.017Z,102199.78
2022-10-19T18:58:50.308Z,102203.25
2022-10-19T19:01:27.057Z,102202.44
2022-10-19T19:03:57.334Z,102199.91
2022-10-19T19:06:28.901Z,102195.63
2022-10-19T19:08:57.409Z,102192.25
2022-10-19T19:11:26.615Z,102203.44
2022-10-19T19:13:59.555Z,102201.50
2022-10-19T19:16:28.037Z,102207.38
2022-10-19T19:18:55.281Z,102202.25
2022-10-19T19:21:28.014Z,102209.25
2022-10-19T19:23:57.397Z,102207.59
2022-10-19T19:26:26.335Z,102198.94
2022-10-19T19:28:53.006Z,102195.63
2022-10-19T19:31:20.022Z,102203.44
2022-10-19T19:33:47.187Z,102201.72
2022-10-19T19:36:15.870Z,102198.25
2022-10-19T19:38:43.072Z,102198.19
2022-10-19T19:41:13.226Z,102200.72
2022-10-19T19:43:40.829Z,102195.56
2022-10-19T19:46:12.463Z,102198.09
2022-10-19T19:48:41.328Z,102192.78
2022-10-19T19:51:13.973Z,102188.34
2022-10-19T19:53:40.611Z,102182.41
2022-10-19T19:56:08.985Z,102190.13
2022-10-19T19:58:36.083Z,102190.09
2022-10-19T20:01:13.656Z,102175.13
2022-10-19T20:03:41.050Z,102180.19
2022-10-19T20:06:08.024Z,102176.63
2022-10-19T20:08:36.232Z,102176.53
2022-10-19T20:11:05.350Z,102179.88
2022-10-19T20:13:32.417Z,102173.88
2022-10-19T20:16:02.378Z,102179.06
2022-10-19T20:18:29.594Z,102175.72
2022-10-19T20:21:01.064Z,102180.91
2022-10-19T20:23:28.170Z,102188.84
2022-10-19T20:25:56.298Z,102198.47
2022-10-19T20:28:24.933Z,102198.59
2022-10-19T20:31:05.190Z,102198.53
2022-10-19T20:33:34.263Z,102198.59
2022-10-19T20:36:12.696Z,102194.41
2022-10-19T20:38:40.586Z,102202.25
2022-10-19T20:41:09.092Z,102197.25
2022-10-19T20:43:37.105Z,102194.97
2022-10-19T20:46:04.817Z,102203.88
2022-10-19T20:48:31.681Z,102202.13
2022-10-19T20:51:15.007Z,102207.34
2022-10-19T20:53:47.328Z,102197.97
2022-10-19T20:56:16.928Z,102192.91
2022-10-19T20:58:44.907Z,102192.94
2022-10-19T21:01:17.517Z,102205.78
2022-10-19T21:03:48.936Z,102201.47
2022-10-19T21:06:15.688Z,102198.94
2022-10-19T21:08:42.696Z,102205.94
2022-10-19T21:11:22.287Z,102199.94
2022-10-19T21:13:52.315Z,102200.81
2022-10-19T21:16:21.648Z,102199.13
2022-10-19T21:18:49.622Z,102189.69
2022-10-19T21:21:28.059Z,102182.19
2022-10-19T21:23:57.982Z,102178.91
2022-10-19T21:26:26.139Z,102179.00
2022-10-19T21:28:53.282Z,102179.94
2022-10-19T21:31:21.686Z,102180.91
2022-10-19T21:33:48.800Z,102180.97
2022-10-19T21:36:15.958Z,102180.09
2022-10-19T21:38:42.891Z,102171.53
2022-10-19T21:41:15.163Z,102168.16
2022-10-19T21:43:42.314Z,102163.97
2022-10-19T21:46:13.759Z,102163.19
2022-10-19T21:48:40.916Z,102160.56
2022-10-19T21:51:16.562Z,102156.31
2022-10-19T21:53:43.777Z,102158.91
2022-10-19T21:56:10.319Z,102155.44
2022-10-19T21:58:36.908Z,102158.00
2022-10-19T22:01:06.924Z,102154.53
2022-10-19T22:03:33.946Z,102142.53
2022-10-19T22:06:00.790Z,102146.81
2022-10-19T22:08:27.482Z,102147.63
2022-10-19T22:10:54.194Z,102144.22
2022-10-19T22:13:20.732Z,102143.41
2022-10-19T22:15:47.254Z,102128.72
2022-10-19T22:18:13.773Z,102128.72
2022-10-19T22:20:40.654Z,102129.59
2022-10-19T22:23:08.112Z,102128.78
2022-10-19T22:25:35.434Z,102126.19
2022-10-19T22:28:01.980Z,102125.44
2022-10-19T22:30:28.593Z,102122.97
2022-10-19T22:32:55.897Z,102118.78
2022-10-19T22:35:22.461Z,102124.78
2022-10-19T22:37:49.041Z,102113.59
2022-10-19T22:40:15.628Z,102118.78
2022-10-19T22:42:42.178Z,102117.91
2022-10-19T22:45:08.940Z,102122.09
2022-10-19T22:47:35.585Z,102122.03
2022-10-19T22:50:02.117Z,102121.16
2022-10-19T22:52:28.655Z,102111.75
2022-10-19T22:54:55.311Z,102116.09
2022-10-19T22:57:21.947Z,102116.06
2022-10-19T22:59:48.438Z,102115.16
2022-10-19T23:02:15.005Z,102116.00
2022-10-19T23:04:41.670Z,102117.59
2022-10-19T23:07:08.255Z,102110.72
2022-10-19T23:09:34.920Z,102109.84
2022-10-19T23:12:01.390Z,102102.03
2022-10-19T23:14:27.934Z,102106.28
2022-10-19T23:16:54.455Z,102108.03
2022-10-19T23:19:21.054Z,102115.75
2022-10-19T23:21:47.633Z,102114.91
2022-10-19T23:24:14.175Z,102107.94
2022-10-19T23:26:40.809Z,102123.59
2022-10-19T23:29:07.395Z,102116.00
2022-10-19T23:31:33.988Z,102122.88
2022-10-19T23:34:00.648Z,102116.81
2022-10-19T23:36:29.077Z,102106.53
2022-10-19T23:38:57.833Z,102109.19
2022-10-19T23:41:24.644Z,102113.41
2022-10-19T23:43:51.652Z,102102.16
2022-10-19T23:46:18.876Z,102100.50
2022-10-19T23:48:45.666Z,102097.94
2022-10-19T23:51:15.270Z,102096.25
2022-10-19T23:53:44.549Z,102096.22
2022-10-19T23:56:17.059Z,102092.72
2022-10-19T23:58:43.842Z,102088.38
